sensor_id;sensor_type;location;lat;lon;timestamp;P1;durP1;ratioP1;P2;durP2;ratioP2
65035;SDS011;51603;49.300;8.880;2022-12-07T00:01:07;15.63;;;13.80;;
65035;SDS011;51603;49.300;8.880;2022-12-07T00:03:36;15.37;;;11.50;;
65035;SDS011;51603;49.300;8.880;2022-12-07T00:06:03;15.50;;;12.57;;
65035;SDS011;51603;49.300;8.880;2022-12-07T00:08:30;13.40;;;11.70;;
65035;SDS011;51603;49.300;8.880;2022-12-07T00:11:12;17.13;;;14.10;;
65035;SDS011;51603;49.300;8.880;2022-12-07T00:13:46;19.50;;;15.13;;
65035;SDS011;51603;49.300;8.880;2022-12-07T00:16:16;20.27;;;15.50;;
65035;SDS011;51603;49.300;8.880;2022-12-07T00:18:43;19.40;;;17.10;;
65035;SDS011;51603;49.300;8.880;2022-12-07T00:21:19;20.20;;;16.40;;
65035;SDS011;51603;49.300;8.880;2022-12-07T00:23:55;18.07;;;15.23;;
65035;SDS011;51603;49.300;8.880;2022-12-07T00:26:22;23.20;;;16.03;;
65035;SDS011;51603;49.300;8.880;2022-12-07T00:29:00;20.60;;;15.60;;
65035;SDS011;51603;49.300;8.880;2022-12-07T00:31:28;18.40;;;15.77;;
65035;SDS011;51603;49.300;8.880;2022-12-07T00:33:58;20.63;;;15.10;;
65035;SDS011;51603;49.300;8.880;2022-12-07T00:36:24;18.93;;;14.73;;
65035;SDS011;51603;49.300;8.880;2022-12-07T00:38:50;17.80;;;13.83;;
65035;SDS011;51603;49.300;8.880;2022-12-07T00:41:25;21.17;;;15.93;;
65035;SDS011;51603;49.300;8.880;2022-12-07T00:43:52;19.27;;;14.33;;
65035;SDS011;51603;49.300;8.880;2022-12-07T00:46:18;20.17;;;15.57;;
65035;SDS011;51603;49.300;8.880;2022-12-07T00:48:44;20.00;;;17.33;;
65035;SDS011;51603;49.300;8.880;2022-12-07T00:51:11;14.60;;;12.20;;
65035;SDS011;51603;49.300;8.880;2022-12-07T00:53:38;16.57;;;13.53;;
65035;SDS011;51603;49.300;8.880;2022-12-07T00:56:23;16.73;;;13.50;;
65035;SDS011;51603;49.300;8.880;2022-12-07T00:58:53;18.90;;;14.23;;
65035;SDS011;51603;49.300;8.880;2022-12-07T01:01:21;19.93;;;14.33;;
65035;SDS011;51603;49.300;8.880;2022-12-07T01:03:47;14.07;;;12.57;;
65035;SDS011;51603;49.300;8.880;2022-12-07T01:06:14;14.83;;;11.87;;
65035;SDS011;51603;49.300;8.880;2022-12-07T01:08:41;17.27;;;13.37;;
65035;SDS011;51603;49.300;8.880;2022-12-07T01:11:07;21.73;;;15.70;;
65035;SDS011;51603;49.300;8.880;2022-12-07T01:13:36;22.97;;;16.20;;
65035;SDS011;51603;49.300;8.880;2022-12-07T01:16:03;16.73;;;12.60;;
65035;SDS011;51603;49.300;8.880;2022-12-07T01:18:31;14.90;;;11.27;;
65035;SDS011;51603;49.300;8.880;2022-12-07T01:23:31;19.60;;;15.73;;
65035;SDS011;51603;49.300;8.880;2022-12-07T01:25:58;16.47;;;14.00;;
65035;SDS011;51603;49.300;8.880;2022-12-07T01:28:25;16.43;;;14.73;;
65035;SDS011;51603;49.300;8.880;2022-12-07T01:31:01;19.90;;;14.47;;
65035;SDS011;51603;49.300;8.880;2022-12-07T01:33:31;18.23;;;14.40;;
65035;SDS011;51603;49.300;8.880;2022-12-07T01:36:06;17.97;;;15.03;;
65035;SDS011;51603;49.300;8.880;2022-12-07T01:38:33;18.80;;;15.20;;
65035;SDS011;51603;49.300;8.880;2022-12-07T01:40:59;20.73;;;14.17;;
65035;SDS011;51603;49.300;8.880;2022-12-07T01:43:27;18.83;;;14.00;;
65035;SDS011;51603;49.300;8.880;2022-12-07T01:45:54;16.60;;;14.60;;
65035;SDS011;51603;49.300;8.880;2022-12-07T01:48:22;16.60;;;14.07;;
65035;SDS011;51603;49.300;8.880;2022-12-07T01:51:01;16.37;;;12.97;;
65035;SDS011;51603;49.300;8.880;2022-12-07T01:53:34;15.93;;;13.00;;
65035;SDS011;51603;49.300;8.880;2022-12-07T01:56:03;14.80;;;11.90;;
65035;SDS011;51603;49.300;8.880;2022-12-07T01:58:29;15.77;;;13.43;;
65035;SDS011;51603;49.300;8.880;2022-12-07T02:00:55;15.70;;;13.20;;
65035;SDS011;51603;49.300;8.880;2022-12-07T02:05:52;17.73;;;13.53;;
65035;SDS011;51603;49.300;8.880;2022-12-07T02:08:19;16.30;;;13.57;;
65035;SDS011;51603;49.300;8.880;2022-12-07T02:10:45;19.73;;;14.80;;
65035;SDS011;51603;49.300;8.880;2022-12-07T02:13:12;19.00;;;15.83;;
65035;SDS011;51603;49.300;8.880;2022-12-07T02:15:51;17.17;;;13.43;;
65035;SDS011;51603;49.300;8.880;2022-12-07T02:21:39;15.90;;;13.47;;
65035;SDS011;51603;49.300;8.880;2022-12-07T02:24:19;20.13;;;15.30;;
65035;SDS011;51603;49.300;8.880;2022-12-07T02:29:43;17.90;;;13.13;;
65035;SDS011;51603;49.300;8.880;2022-12-07T02:35:32;16.97;;;13.53;;
65035;SDS011;51603;49.300;8.880;2022-12-07T02:38:14;17.27;;;13.90;;
65035;SDS011;51603;49.300;8.880;2022-12-07T02:40:55;20.30;;;13.87;;
65035;SDS011;51603;49.300;8.880;2022-12-07T02:43:28;20.80;;;17.23;;
65035;SDS011;51603;49.300;8.880;2022-12-07T02:46:03;23.50;;;20.67;;
65035;SDS011;51603;49.300;8.880;2022-12-07T02:48:33;25.87;;;22.20;;
65035;SDS011;51603;49.300;8.880;2022-12-07T02:51:00;25.00;;;21.07;;
65035;SDS011;51603;49.300;8.880;2022-12-07T02:53:33;28.23;;;24.87;;
65035;SDS011;51603;49.300;8.880;2022-12-07T02:56:10;30.73;;;27.17;;
65035;SDS011;51603;49.300;8.880;2022-12-07T02:58:54;27.67;;;24.70;;
65035;SDS011;51603;49.300;8.880;2022-12-07T03:06:44;20.80;;;15.10;;
65035;SDS011;51603;49.300;8.880;2022-12-07T03:09:32;17.17;;;14.80;;
65035;SDS011;51603;49.300;8.880;2022-12-07T03:12:22;18.40;;;14.60;;
65035;SDS011;51603;49.300;8.880;2022-12-07T03:14:59;24.27;;;18.80;;
65035;SDS011;51603;49.300;8.880;2022-12-07T03:17:46;22.50;;;17.17;;
65035;SDS011;51603;49.300;8.880;2022-12-07T03:20:14;33.40;;;19.10;;
65035;SDS011;51603;49.300;8.880;2022-12-07T03:22:43;21.03;;;16.87;;
65035;SDS011;51603;49.300;8.880;2022-12-07T03:25:11;22.80;;;17.10;;
65035;SDS011;51603;49.300;8.880;2022-12-07T03:27:41;20.23;;;15.63;;
65035;SDS011;51603;49.300;8.880;2022-12-07T03:30:16;18.77;;;14.90;;
65035;SDS011;51603;49.300;8.880;2022-12-07T03:33:04;19.20;;;15.97;;
65035;SDS011;51603;49.300;8.880;2022-12-07T03:35:36;21.93;;;15.70;;
65035;SDS011;51603;49.300;8.880;2022-12-07T03:38:12;17.90;;;14.83;;
65035;SDS011;51603;49.300;8.880;2022-12-07T03:43:27;21.30;;;15.37;;
65035;SDS011;51603;49.300;8.880;2022-12-07T03:46:00;19.63;;;15.87;;
65035;SDS011;51603;49.300;8.880;2022-12-07T03:48:49;20.27;;;15.80;;
65035;SDS011;51603;49.300;8.880;2022-12-07T03:51:36;19.10;;;15.77;;
65035;SDS011;51603;49.300;8.880;2022-12-07T03:54:36;20.33;;;16.23;;
65035;SDS011;51603;49.300;8.880;2022-12-07T03:57:08;20.30;;;17.43;;
65035;SDS011;51603;49.300;8.880;2022-12-07T03:59:35;23.93;;;19.40;;
65035;SDS011;51603;49.300;8.880;2022-12-07T04:02:03;18.70;;;16.20;;
65035;SDS011;51603;49.300;8.880;2022-12-07T04:04:30;20.97;;;17.93;;
65035;SDS011;51603;49.300;8.880;2022-12-07T04:06:56;25.83;;;23.17;;
65035;SDS011;51603;49.300;8.880;2022-12-07T04:09:21;25.07;;;22.27;;
65035;SDS011;51603;49.300;8.880;2022-12-07T04:11:47;26.70;;;24.03;;
65035;SDS011;51603;49.300;8.880;2022-12-07T04:14:13;22.93;;;19.80;;
65035;SDS011;51603;49.300;8.880;2022-12-07T04:16:48;25.57;;;20.70;;
65035;SDS011;51603;49.300;8.880;2022-12-07T04:19:14;22.77;;;17.97;;
65035;SDS011;51603;49.300;8.880;2022-12-07T04:21:41;26.73;;;20.23;;
65035;SDS011;51603;49.300;8.880;2022-12-07T04:24:06;23.47;;;19.50;;
65035;SDS011;51603;49.300;8.880;2022-12-07T04:26:32;20.07;;;17.90;;
65035;SDS011;51603;49.300;8.880;2022-12-07T04:28:58;26.37;;;20.80;;
65035;SDS011;51603;49.300;8.880;2022-12-07T04:31:23;27.83;;;20.80;;
65035;SDS011;51603;49.300;8.880;2022-12-07T04:33:49;24.63;;;20.27;;
65035;SDS011;51603;49.300;8.880;2022-12-07T04:36:14;25.90;;;20.53;;
65035;SDS011;51603;49.300;8.880;2022-12-07T04:38:40;33.13;;;22.10;;
65035;SDS011;51603;49.300;8.880;2022-12-07T04:41:06;24.10;;;21.23;;
65035;SDS011;51603;49.300;8.880;2022-12-07T04:43:33;33.57;;;29.97;;
65035;SDS011;51603;49.300;8.880;2022-12-07T04:45:59;32.40;;;28.30;;
65035;SDS011;51603;49.300;8.880;2022-12-07T04:48:24;34.57;;;28.57;;
65035;SDS011;51603;49.300;8.880;2022-12-07T04:50:50;29.30;;;24.33;;
65035;SDS011;51603;49.300;8.880;2022-12-07T04:53:15;30.50;;;25.13;;
65035;SDS011;51603;49.300;8.880;2022-12-07T04:55:41;38.83;;;27.60;;
65035;SDS011;51603;49.300;8.880;2022-12-07T04:58:06;33.87;;;27.37;;
65035;SDS011;51603;49.300;8.880;2022-12-07T05:00:32;25.97;;;22.17;;
65035;SDS011;51603;49.300;8.880;2022-12-07T05:02:58;27.43;;;23.17;;
65035;SDS011;51603;49.300;8.880;2022-12-07T05:05:23;25.23;;;20.70;;
65035;SDS011;51603;49.300;8.880;2022-12-07T05:07:49;26.20;;;22.87;;
65035;SDS011;51603;49.300;8.880;2022-12-07T05:10:15;24.43;;;19.90;;
65035;SDS011;51603;49.300;8.880;2022-12-07T05:12:41;25.33;;;19.00;;
65035;SDS011;51603;49.300;8.880;2022-12-07T05:15:06;25.50;;;21.73;;
65035;SDS011;51603;49.300;8.880;2022-12-07T05:17:32;22.63;;;20.13;;
65035;SDS011;51603;49.300;8.880;2022-12-07T05:19:58;21.90;;;17.23;;
65035;SDS011;51603;49.300;8.880;2022-12-07T05:22:23;22.10;;;16.30;;
65035;SDS011;51603;49.300;8.880;2022-12-07T05:24:52;23.50;;;17.33;;
65035;SDS011;51603;49.300;8.880;2022-12-07T05:27:19;18.40;;;15.53;;
65035;SDS011;51603;49.300;8.880;2022-12-07T05:29:44;21.77;;;15.37;;
65035;SDS011;51603;49.300;8.880;2022-12-07T05:32:10;16.43;;;14.10;;
65035;SDS011;51603;49.300;8.880;2022-12-07T05:34:36;16.27;;;13.73;;
65035;SDS011;51603;49.300;8.880;2022-12-07T05:37:01;16.80;;;13.80;;
65035;SDS011;51603;49.300;8.880;2022-12-07T05:39:27;17.77;;;14.27;;
65035;SDS011;51603;49.300;8.880;2022-12-07T05:41:52;17.60;;;14.50;;
65035;SDS011;51603;49.300;8.880;2022-12-07T05:44:36;16.07;;;12.60;;
65035;SDS011;51603;49.300;8.880;2022-12-07T05:47:02;16.67;;;12.73;;
65035;SDS011;51603;49.300;8.880;2022-12-07T05:49:27;16.90;;;13.30;;
65035;SDS011;51603;49.300;8.880;2022-12-07T05:51:53;14.57;;;12.63;;
65035;SDS011;51603;49.300;8.880;2022-12-07T05:54:18;16.13;;;13.30;;
65035;SDS011;51603;49.300;8.880;2022-12-07T05:56:44;18.07;;;14.80;;
65035;SDS011;51603;49.300;8.880;2022-12-07T05:59:10;21.17;;;16.40;;
65035;SDS011;51603;49.300;8.880;2022-12-07T06:01:57;22.97;;;17.33;;
65035;SDS011;51603;49.300;8.880;2022-12-07T06:04:25;19.77;;;15.63;;
65035;SDS011;51603;49.300;8.880;2022-12-07T06:06:53;20.07;;;15.80;;
65035;SDS011;51603;49.300;8.880;2022-12-07T06:09:19;18.13;;;15.77;;
65035;SDS011;51603;49.300;8.880;2022-12-07T06:11:46;23.83;;;18.13;;
65035;SDS011;51603;49.300;8.880;2022-12-07T06:14:30;21.80;;;17.37;;
65035;SDS011;51603;49.300;8.880;2022-12-07T06:16:56;21.10;;;17.33;;
65035;SDS011;51603;49.300;8.880;2022-12-07T06:19:23;21.00;;;17.00;;
65035;SDS011;51603;49.300;8.880;2022-12-07T06:21:48;21.73;;;16.20;;
65035;SDS011;51603;49.300;8.880;2022-12-07T06:24:15;20.00;;;16.37;;
65035;SDS011;51603;49.300;8.880;2022-12-07T06:26:41;19.67;;;15.97;;
65035;SDS011;51603;49.300;8.880;2022-12-07T06:29:07;17.90;;;15.57;;
65035;SDS011;51603;49.300;8.880;2022-12-07T06:31:32;18.70;;;14.60;;
65035;SDS011;51603;49.300;8.880;2022-12-07T06:34:03;20.97;;;16.47;;
65035;SDS011;51603;49.300;8.880;2022-12-07T06:36:30;23.30;;;15.90;;
65035;SDS011;51603;49.300;8.880;2022-12-07T06:38:56;17.97;;;14.40;;
65035;SDS011;51603;49.300;8.880;2022-12-07T06:41:22;24.43;;;17.00;;
65035;SDS011;51603;49.300;8.880;2022-12-07T06:43:49;21.57;;;16.13;;
65035;SDS011;51603;49.300;8.880;2022-12-07T06:46:15;18.90;;;16.40;;
65035;SDS011;51603;49.300;8.880;2022-12-07T06:48:41;26.83;;;17.53;;
65035;SDS011;51603;49.300;8.880;2022-12-07T06:51:07;21.87;;;18.10;;
65035;SDS011;51603;49.300;8.880;2022-12-07T06:53:34;21.43;;;17.97;;
65035;SDS011;51603;49.300;8.880;2022-12-07T06:55:59;22.20;;;16.53;;
65035;SDS011;51603;49.300;8.880;2022-12-07T06:58:25;21.17;;;15.93;;
65035;SDS011;51603;49.300;8.880;2022-12-07T07:00:51;23.03;;;16.10;;
65035;SDS011;51603;49.300;8.880;2022-12-07T07:03:16;19.90;;;14.80;;
65035;SDS011;51603;49.300;8.880;2022-12-07T07:05:42;19.90;;;15.07;;
65035;SDS011;51603;49.300;8.880;2022-12-07T07:08:09;22.77;;;16.80;;
65035;SDS011;51603;49.300;8.880;2022-12-07T07:10:35;19.77;;;15.87;;
65035;SDS011;51603;49.300;8.880;2022-12-07T07:13:01;21.70;;;16.67;;
65035;SDS011;51603;49.300;8.880;2022-12-07T07:15:27;23.53;;;17.57;;
65035;SDS011;51603;49.300;8.880;2022-12-07T07:17:52;21.83;;;18.07;;
65035;SDS011;51603;49.300;8.880;2022-12-07T07:20:18;24.57;;;17.87;;
65035;SDS011;51603;49.300;8.880;2022-12-07T07:22:44;23.47;;;18.10;;
65035;SDS011;51603;49.300;8.880;2022-12-07T07:25:09;22.23;;;17.30;;
65035;SDS011;51603;49.300;8.880;2022-12-07T07:27:35;23.50;;;18.70;;
65035;SDS011;51603;49.300;8.880;2022-12-07T07:30:01;25.37;;;17.80;;
65035;SDS011;51603;49.300;8.880;2022-12-07T07:32:26;20.17;;;16.27;;
65035;SDS011;51603;49.300;8.880;2022-12-07T07:34:52;24.60;;;17.83;;
65035;SDS011;51603;49.300;8.880;2022-12-07T07:37:17;24.73;;;18.20;;
65035;SDS011;51603;49.300;8.880;2022-12-07T07:39:43;21.73;;;17.23;;
65035;SDS011;51603;49.300;8.880;2022-12-07T07:42:08;27.07;;;19.50;;
65035;SDS011;51603;49.300;8.880;2022-12-07T07:44:34;23.40;;;17.37;;
65035;SDS011;51603;49.300;8.880;2022-12-07T07:47:00;21.60;;;18.10;;
65035;SDS011;51603;49.300;8.880;2022-12-07T07:49:25;22.27;;;17.00;;
65035;SDS011;51603;49.300;8.880;2022-12-07T07:51:51;23.97;;;18.43;;
65035;SDS011;51603;49.300;8.880;2022-12-07T07:54:17;27.30;;;19.00;;
65035;SDS011;51603;49.300;8.880;2022-12-07T07:56:42;21.27;;;17.43;;
65035;SDS011;51603;49.300;8.880;2022-12-07T07:59:08;21.13;;;17.90;;
65035;SDS011;51603;49.300;8.880;2022-12-07T08:01:34;30.93;;;19.90;;
65035;SDS011;51603;49.300;8.880;2022-12-07T08:03:59;25.80;;;17.70;;
65035;SDS011;51603;49.300;8.880;2022-12-07T08:06:25;24.10;;;18.77;;
65035;SDS011;51603;49.300;8.880;2022-12-07T08:08:51;22.53;;;17.40;;
65035;SDS011;51603;49.300;8.880;2022-12-07T08:11:17;20.80;;;16.67;;
65035;SDS011;51603;49.300;8.880;2022-12-07T08:13:45;25.07;;;17.90;;
65035;SDS011;51603;49.300;8.880;2022-12-07T08:16:11;24.07;;;18.40;;
65035;SDS011;51603;49.300;8.880;2022-12-07T08:18:37;24.83;;;18.73;;
65035;SDS011;51603;49.300;8.880;2022-12-07T08:21:05;25.47;;;17.47;;
65035;SDS011;51603;49.300;8.880;2022-12-07T08:23:32;27.63;;;17.10;;
65035;SDS011;51603;49.300;8.880;2022-12-07T08:26:02;25.50;;;18.00;;
65035;SDS011;51603;49.300;8.880;2022-12-07T08:28:29;22.67;;;16.80;;
65035;SDS011;51603;49.300;8.880;2022-12-07T08:31:14;22.17;;;17.57;;
65035;SDS011;51603;49.300;8.880;2022-12-07T08:33:42;24.10;;;18.40;;
65035;SDS011;51603;49.300;8.880;2022-12-07T08:36:10;25.40;;;18.53;;
65035;SDS011;51603;49.300;8.880;2022-12-07T08:38:37;24.60;;;18.90;;
65035;SDS011;51603;49.300;8.880;2022-12-07T08:41:04;26.80;;;21.10;;
65035;SDS011;51603;49.300;8.880;2022-12-07T08:43:30;23.43;;;18.60;;
65035;SDS011;51603;49.300;8.880;2022-12-07T08:46:09;23.60;;;19.63;;
65035;SDS011;51603;49.300;8.880;2022-12-07T08:48:47;25.20;;;21.27;;
65035;SDS011;51603;49.300;8.880;2022-12-07T08:51:14;22.50;;;18.47;;
65035;SDS011;51603;49.300;8.880;2022-12-07T08:53:39;25.00;;;18.93;;
65035;SDS011;51603;49.300;8.880;2022-12-07T08:56:07;24.67;;;18.23;;
65035;SDS011;51603;49.300;8.880;2022-12-07T08:58:34;23.37;;;17.10;;
65035;SDS011;51603;49.300;8.880;2022-12-07T09:01:00;19.47;;;16.77;;
65035;SDS011;51603;49.300;8.880;2022-12-07T09:03:26;23.20;;;17.33;;
65035;SDS011;51603;49.300;8.880;2022-12-07T09:05:52;21.97;;;16.80;;
65035;SDS011;51603;49.300;8.880;2022-12-07T09:08:18;24.37;;;18.73;;
65035;SDS011;51603;49.300;8.880;2022-12-07T09:10:45;23.70;;;17.77;;
65035;SDS011;51603;49.300;8.880;2022-12-07T09:13:11;21.57;;;15.33;;
65035;SDS011;51603;49.300;8.880;2022-12-07T09:15:36;25.20;;;18.00;;
65035;SDS011;51603;49.300;8.880;2022-12-07T09:18:02;21.77;;;16.80;;
65035;SDS011;51603;49.300;8.880;2022-12-07T09:20:28;24.63;;;18.00;;
65035;SDS011;51603;49.300;8.880;2022-12-07T09:22:53;20.57;;;16.20;;
65035;SDS011;51603;49.300;8.880;2022-12-07T09:25:19;20.43;;;16.00;;
65035;SDS011;51603;49.300;8.880;2022-12-07T09:27:44;20.30;;;15.60;;
65035;SDS011;51603;49.300;8.880;2022-12-07T09:30:10;23.10;;;15.67;;
65035;SDS011;51603;49.300;8.880;2022-12-07T09:32:36;20.97;;;17.03;;
65035;SDS011;51603;49.300;8.880;2022-12-07T09:35:01;21.93;;;16.23;;
65035;SDS011;51603;49.300;8.880;2022-12-07T09:37:27;20.87;;;15.63;;
65035;SDS011;51603;49.300;8.880;2022-12-07T09:39:53;20.20;;;15.97;;
65035;SDS011;51603;49.300;8.880;2022-12-07T09:42:24;20.50;;;16.63;;
65035;SDS011;51603;49.300;8.880;2022-12-07T09:44:58;21.53;;;16.87;;
65035;SDS011;51603;49.300;8.880;2022-12-07T09:47:24;26.13;;;18.20;;
65035;SDS011;51603;49.300;8.880;2022-12-07T09:49:51;23.80;;;19.17;;
65035;SDS011;51603;49.300;8.880;2022-12-07T09:54:49;19.83;;;17.13;;
65035;SDS011;51603;49.300;8.880;2022-12-07T09:57:15;20.10;;;15.67;;
65035;SDS011;51603;49.300;8.880;2022-12-07T09:59:42;21.93;;;17.17;;
65035;SDS011;51603;49.300;8.880;2022-12-07T10:02:24;22.13;;;18.10;;
65035;SDS011;51603;49.300;8.880;2022-12-07T10:04:53;21.87;;;17.73;;
65035;SDS011;51603;49.300;8.880;2022-12-07T10:07:18;23.60;;;17.10;;
65035;SDS011;51603;49.300;8.880;2022-12-07T10:09:44;22.03;;;16.20;;
65035;SDS011;51603;49.300;8.880;2022-12-07T10:12:11;22.20;;;16.40;;
65035;SDS011;51603;49.300;8.880;2022-12-07T10:14:38;25.03;;;18.63;;
65035;SDS011;51603;49.300;8.880;2022-12-07T10:17:26;24.43;;;18.80;;
65035;SDS011;51603;49.300;8.880;2022-12-07T10:20:08;21.77;;;16.90;;
65035;SDS011;51603;49.300;8.880;2022-12-07T10:22:38;23.77;;;17.10;;
65035;SDS011;51603;49.300;8.880;2022-12-07T10:25:20;21.37;;;16.33;;
65035;SDS011;51603;49.300;8.880;2022-12-07T10:28:00;21.47;;;16.43;;
65035;SDS011;51603;49.300;8.880;2022-12-07T10:30:27;23.03;;;17.07;;
65035;SDS011;51603;49.300;8.880;2022-12-07T10:32:54;21.10;;;16.13;;
65035;SDS011;51603;49.300;8.880;2022-12-07T10:37:49;23.90;;;17.77;;
65035;SDS011;51603;49.300;8.880;2022-12-07T10:43:00;22.47;;;17.50;;
65035;SDS011;51603;49.300;8.880;2022-12-07T10:45:29;24.83;;;18.20;;
65035;SDS011;51603;49.300;8.880;2022-12-07T10:59:08;34.20;;;28.73;;
65035;SDS011;51603;49.300;8.880;2022-12-07T11:04:49;22.87;;;17.27;;
65035;SDS011;51603;49.300;8.880;2022-12-07T11:07:39;61.93;;;46.60;;
65035;SDS011;51603;49.300;8.880;2022-12-07T11:10:43;28.53;;;21.33;;
65035;SDS011;51603;49.300;8.880;2022-12-07T11:13:28;30.60;;;19.90;;
65035;SDS011;51603;49.300;8.880;2022-12-07T11:16:20;21.57;;;16.83;;
65035;SDS011;51603;49.300;8.880;2022-12-07T11:22:13;32.57;;;22.00;;
65035;SDS011;51603;49.300;8.880;2022-12-07T11:27:41;66.27;;;37.53;;
65035;SDS011;51603;49.300;8.880;2022-12-07T11:30:21;25.10;;;18.67;;
65035;SDS011;51603;49.300;8.880;2022-12-07T11:35:38;22.57;;;16.80;;
65035;SDS011;51603;49.300;8.880;2022-12-07T11:38:16;27.33;;;19.83;;
65035;SDS011;51603;49.300;8.880;2022-12-07T11:40:44;42.43;;;28.23;;
65035;SDS011;51603;49.300;8.880;2022-12-07T11:43:15;73.80;;;41.23;;
65035;SDS011;51603;49.300;8.880;2022-12-07T11:45:47;34.67;;;23.03;;
65035;SDS011;51603;49.300;8.880;2022-12-07T11:48:24;30.93;;;23.80;;
65035;SDS011;51603;49.300;8.880;2022-12-07T11:50:55;66.33;;;36.03;;
65035;SDS011;51603;49.300;8.880;2022-12-07T11:53:25;55.70;;;32.57;;
65035;SDS011;51603;49.300;8.880;2022-12-07T12:06:30;23.67;;;17.30;;
65035;SDS011;51603;49.300;8.880;2022-12-07T12:17:49;46.00;;;33.53;;
65035;SDS011;51603;49.300;8.880;2022-12-07T12:20:35;26.77;;;20.63;;
65035;SDS011;51603;49.300;8.880;2022-12-07T12:33:30;21.47;;;16.43;;
65035;SDS011;51603;49.300;8.880;2022-12-07T12:36:21;21.03;;;15.00;;
65035;SDS011;51603;49.300;8.880;2022-12-07T12:47:02;19.47;;;14.80;;
65035;SDS011;51603;49.300;8.880;2022-12-07T12:50:11;19.70;;;15.10;;
65035;SDS011;51603;49.300;8.880;2022-12-07T12:57:33;19.10;;;13.67;;
65035;SDS011;51603;49.300;8.880;2022-12-07T13:00:01;19.53;;;16.73;;
65035;SDS011;51603;49.300;8.880;2022-12-07T13:15:39;22.43;;;16.47;;
65035;SDS011;51603;49.300;8.880;2022-12-07T13:28:50;16.50;;;14.43;;
65035;SDS011;51603;49.300;8.880;2022-12-07T13:31:26;16.93;;;13.67;;
65035;SDS011;51603;49.300;8.880;2022-12-07T13:36:55;16.80;;;14.53;;
65035;SDS011;51603;49.300;8.880;2022-12-07T13:39:23;21.60;;;15.20;;
65035;SDS011;51603;49.300;8.880;2022-12-07T13:41:54;19.00;;;16.57;;
65035;SDS011;51603;49.300;8.880;2022-12-07T13:44:22;19.40;;;14.50;;
65035;SDS011;51603;49.300;8.880;2022-12-07T13:49:24;20.00;;;17.50;;
65035;SDS011;51603;49.300;8.880;2022-12-07T13:51:52;21.60;;;17.53;;
65035;SDS011;51603;49.300;8.880;2022-12-07T13:54:19;18.03;;;13.67;;
65035;SDS011;51603;49.300;8.880;2022-12-07T13:56:47;18.03;;;14.57;;
65035;SDS011;51603;49.300;8.880;2022-12-07T13:59:21;18.70;;;14.97;;
65035;SDS011;51603;49.300;8.880;2022-12-07T14:01:48;18.60;;;13.93;;
65035;SDS011;51603;49.300;8.880;2022-12-07T14:04:16;21.00;;;15.27;;
65035;SDS011;51603;49.300;8.880;2022-12-07T14:06:59;20.77;;;14.77;;
65035;SDS011;51603;49.300;8.880;2022-12-07T14:09:27;21.27;;;16.60;;
65035;SDS011;51603;49.300;8.880;2022-12-07T14:11:54;17.93;;;14.60;;
65035;SDS011;51603;49.300;8.880;2022-12-07T14:14:28;17.00;;;14.00;;
65035;SDS011;51603;49.300;8.880;2022-12-07T14:17:00;20.00;;;16.47;;
65035;SDS011;51603;49.300;8.880;2022-12-07T14:19:40;24.93;;;16.87;;
65035;SDS011;51603;49.300;8.880;2022-12-07T14:22:21;20.00;;;15.47;;
65035;SDS011;51603;49.300;8.880;2022-12-07T14:24:47;18.43;;;14.93;;
65035;SDS011;51603;49.300;8.880;2022-12-07T14:27:17;19.00;;;15.43;;
65035;SDS011;51603;49.300;8.880;2022-12-07T14:29:47;18.83;;;15.90;;
65035;SDS011;51603;49.300;8.880;2022-12-07T14:32:47;16.53;;;14.67;;
65035;SDS011;51603;49.300;8.880;2022-12-07T14:35:09;21.40;;;14.63;;
65035;SDS011;51603;49.300;8.880;2022-12-07T14:37:37;22.03;;;19.30;;
65035;SDS011;51603;49.300;8.880;2022-12-07T14:40:04;25.83;;;20.13;;
65035;SDS011;51603;49.300;8.880;2022-12-07T14:42:31;25.00;;;19.27;;
65035;SDS011;51603;49.300;8.880;2022-12-07T14:44:58;38.27;;;27.53;;
65035;SDS011;51603;49.300;8.880;2022-12-07T14:47:25;25.60;;;21.10;;
65035;SDS011;51603;49.300;8.880;2022-12-07T14:49:51;23.73;;;17.77;;
65035;SDS011;51603;49.300;8.880;2022-12-07T14:52:22;24.90;;;18.77;;
65035;SDS011;51603;49.300;8.880;2022-12-07T14:54:51;21.23;;;16.40;;
65035;SDS011;51603;49.300;8.880;2022-12-07T14:57:17;23.57;;;18.60;;
65035;SDS011;51603;49.300;8.880;2022-12-07T14:59:43;20.97;;;17.47;;
65035;SDS011;51603;49.300;8.880;2022-12-07T15:02:09;34.83;;;25.63;;
65035;SDS011;51603;49.300;8.880;2022-12-07T15:04:37;22.50;;;18.17;;
65035;SDS011;51603;49.300;8.880;2022-12-07T15:07:03;33.57;;;22.23;;
65035;SDS011;51603;49.300;8.880;2022-12-07T15:09:30;32.97;;;23.67;;
65035;SDS011;51603;49.300;8.880;2022-12-07T15:11:56;32.63;;;23.20;;
65035;SDS011;51603;49.300;8.880;2022-12-07T15:14:22;36.60;;;25.57;;
65035;SDS011;51603;49.300;8.880;2022-12-07T15:16:47;26.43;;;20.80;;
65035;SDS011;51603;49.300;8.880;2022-12-07T15:19:14;21.97;;;18.07;;
65035;SDS011;51603;49.300;8.880;2022-12-07T15:21:44;24.37;;;19.17;;
65035;SDS011;51603;49.300;8.880;2022-12-07T15:24:10;21.47;;;18.57;;
65035;SDS011;51603;49.300;8.880;2022-12-07T15:26:36;26.33;;;20.13;;
65035;SDS011;51603;49.300;8.880;2022-12-07T15:29:03;24.77;;;19.80;;
65035;SDS011;51603;49.300;8.880;2022-12-07T15:31:29;25.90;;;20.03;;
65035;SDS011;51603;49.300;8.880;2022-12-07T15:33:55;26.27;;;18.73;;
65035;SDS011;51603;49.300;8.880;2022-12-07T15:36:21;20.60;;;17.40;;
65035;SDS011;51603;49.300;8.880;2022-12-07T15:38:51;24.23;;;17.00;;
65035;SDS011;51603;49.300;8.880;2022-12-07T15:41:17;23.23;;;18.80;;
65035;SDS011;51603;49.300;8.880;2022-12-07T15:43:43;21.53;;;17.90;;
65035;SDS011;51603;49.300;8.880;2022-12-07T15:46:34;25.90;;;18.70;;
65035;SDS011;51603;49.300;8.880;2022-12-07T15:49:03;18.90;;;15.70;;
65035;SDS011;51603;49.300;8.880;2022-12-07T15:51:41;21.43;;;16.90;;
65035;SDS011;51603;49.300;8.880;2022-12-07T15:54:12;23.70;;;17.93;;
65035;SDS011;51603;49.300;8.880;2022-12-07T15:56:43;25.10;;;19.07;;
65035;SDS011;51603;49.300;8.880;2022-12-07T15:59:09;21.73;;;16.27;;
65035;SDS011;51603;49.300;8.880;2022-12-07T16:01:35;20.57;;;15.90;;
65035;SDS011;51603;49.300;8.880;2022-12-07T16:04:00;25.90;;;19.60;;
65035;SDS011;51603;49.300;8.880;2022-12-07T16:06:26;32.87;;;21.27;;
65035;SDS011;51603;49.300;8.880;2022-12-07T16:08:51;31.60;;;26.40;;
65035;SDS011;51603;49.300;8.880;2022-12-07T16:11:17;35.83;;;28.63;;
65035;SDS011;51603;49.300;8.880;2022-12-07T16:13:43;36.13;;;26.17;;
65035;SDS011;51603;49.300;8.880;2022-12-07T16:16:13;23.77;;;20.83;;
65035;SDS011;51603;49.300;8.880;2022-12-07T16:18:39;26.63;;;22.50;;
65035;SDS011;51603;49.300;8.880;2022-12-07T16:21:06;26.47;;;21.63;;
65035;SDS011;51603;49.300;8.880;2022-12-07T16:23:32;22.57;;;18.93;;
65035;SDS011;51603;49.300;8.880;2022-12-07T16:26:04;22.60;;;17.70;;
65035;SDS011;51603;49.300;8.880;2022-12-07T16:28:35;20.03;;;16.33;;
65035;SDS011;51603;49.300;8.880;2022-12-07T16:31:02;19.73;;;15.23;;
65035;SDS011;51603;49.300;8.880;2022-12-07T16:33:32;26.10;;;16.93;;
65035;SDS011;51603;49.300;8.880;2022-12-07T16:35:59;19.00;;;15.93;;
65035;SDS011;51603;49.300;8.880;2022-12-07T16:38:25;22.30;;;16.47;;
65035;SDS011;51603;49.300;8.880;2022-12-07T16:40:51;19.23;;;17.07;;